Searchmont, Canada
Current Conditions -  °F | °C
As of 5:55 PM on Monday 22 Dec 2014 (Local Time) from KANJ Reporting Station
Overcast Overcast  
Wind Chill: 26°   Ceiling: 1800
Heat Index: 33°   Visibility: 10mi
Dew Point: 27°   Wind: 8mph
Humidity: 78%   Direction: 110°ESE
Pressure: 29.99"   Gusts: NA
Location:  46.78°N, 84.05°W
Report Text: KANJ 222255Z AUTO 11007KT 080V150 10SM OVC018 01/M03 A2999 RMK AO2 SLP162 T00061028
Loading
Personal Weather Stations






























Interactive Weather Map New forecast layout! Learn more

10-Day Weather Forecast

Advertisements
Track Severe Weather on mobile